Time;durP1;ratioP1;P1;durP2;ratioP2;P2;SDS_P1;SDS_P2;PMS_P1;PMS_P2;Temp;Humidity;BMP_temperature;BMP_pressure;BME280_temperature;BME280_humidity;BME280_pressure;Samples;Min_cycle;Max_cycle;Signal;HPM_P1;HPM_P2
2022/05/01 00:01:01;;;;;;;6.32;5.55;;;;;;;;;;5099674;28;20024;-87
2022/05/01 00:03:36;;;;;;;6.30;5.65;;;;;;;;;;5100883;28;20138;-89
2022/05/01 00:06:06;;;;;;;5.68;5.13;;;;;;;;;;5100645;28;20028;-89
2022/05/01 00:08:33;;;;;;;6.45;5.40;;;;;;;;;;5100484;28;20024;-88
2022/05/01 00:11:00;;;;;;;6.55;5.82;;;;;;;;;;5100163;28;20024;-87
2022/05/01 00:13:26;;;;;;;6.68;5.55;;;;;;;;;;5100614;28;20043;-87
2022/05/01 00:15:53;;;;;;;6.32;5.35;;;;;;;;;;5100571;28;20036;-87
2022/05/01 00:18:19;;;;;;;12.35;6.10;;;;;;;;;;5099261;28;20059;-88
2022/05/01 00:20:46;;;;;;;6.25;5.40;;;;;;;;;;5099543;28;20397;-88
2022/05/01 00:23:12;;;;;;;8.02;5.15;;;;;;;;;;5100022;28;20398;-88
2022/05/01 00:25:41;;;;;;;6.13;5.13;;;;;;;;;;5112552;28;20446;-88
2022/05/01 00:28:07;;;;;;;7.07;5.63;;;;;;;;;;5120244;28;20031;-89
2022/05/01 00:30:33;;;;;;;6.93;5.55;;;;;;;;;;5119819;28;20043;-88
2022/05/01 00:38:29;;;;;;;6.30;5.20;;;;;;;;;;5120486;28;20061;-85
2022/05/01 00:40:55;;;;;;;7.25;5.35;;;;;;;;;;5120006;28;20061;-86
2022/05/01 00:43:22;;;;;;;7.38;4.95;;;;;;;;;;5120419;28;20314;-87
2022/05/01 00:45:48;;;;;;;6.47;5.03;;;;;;;;;;5120473;28;20049;-83
2022/05/01 00:48:14;;;;;;;7.95;5.38;;;;;;;;;;5112723;28;20474;-86
2022/05/01 00:53:44;;;;;;;7.47;5.90;;;;;;;;;;5107744;28;20393;-83
2022/05/01 00:56:10;;;;;;;6.53;5.80;;;;;;;;;;5100375;28;20065;-89
2022/05/01 00:58:37;;;;;;;8.02;5.95;;;;;;;;;;5114269;28;20441;-89
2022/05/01 01:01:03;;;;;;;6.15;5.53;;;;;;;;;;5119817;28;20034;-88
2022/05/01 01:03:29;;;;;;;7.18;5.72;;;;;;;;;;5119084;28;20420;-89
2022/05/01 01:14:48;;;;;;;6.68;5.55;;;;;;;;;;5101206;28;20039;-88
2022/05/01 01:17:14;;;;;;;6.82;5.95;;;;;;;;;;5114435;28;20130;-88
2022/05/01 01:19:40;;;;;;;8.38;5.88;;;;;;;;;;5118424;28;20031;-87
2022/05/01 01:22:08;;;;;;;8.20;5.90;;;;;;;;;;5118497;28;20037;-88
2022/05/01 01:24:36;;;;;;;6.82;5.78;;;;;;;;;;5119121;28;20019;-89
2022/05/01 01:27:02;;;;;;;6.20;5.38;;;;;;;;;;5118508;28;20028;-89
2022/05/01 01:32:14;;;;;;;9.40;6.38;;;;;;;;;;5119289;28;20123;-88
2022/05/01 01:34:42;;;;;;;6.15;5.55;;;;;;;;;;5119452;28;20317;-88
2022/05/01 01:40:14;;;;;;;6.75;5.63;;;;;;;;;;5119006;28;20034;-89
2022/05/01 01:42:40;;;;;;;6.80;5.57;;;;;;;;;;5119308;28;20020;-89
2022/05/01 01:45:08;;;;;;;6.78;5.78;;;;;;;;;;5119069;28;20403;-89
2022/05/01 01:47:34;;;;;;;10.02;6.38;;;;;;;;;;5117781;28;20118;-89
2022/05/01 01:50:00;;;;;;;9.82;6.90;;;;;;;;;;5118273;28;20044;-89
2022/05/01 01:52:26;;;;;;;7.20;5.88;;;;;;;;;;5117816;28;20328;-89
2022/05/01 01:54:52;;;;;;;7.38;5.95;;;;;;;;;;5119335;28;20087;-89
2022/05/01 01:57:18;;;;;;;10.98;6.65;;;;;;;;;;5119025;28;20034;-89
2022/05/01 01:59:44;;;;;;;29.67;17.17;;;;;;;;;;5117802;28;20104;-89
2022/05/01 02:02:10;;;;;;;48.95;27.27;;;;;;;;;;5118590;28;20024;-88
2022/05/01 02:04:36;;;;;;;30.92;20.40;;;;;;;;;;5117878;28;20027;-89
2022/05/01 02:07:18;;;;;;;10.65;7.68;;;;;;;;;;5118651;28;20083;-88
2022/05/01 02:09:44;;;;;;;10.55;8.77;;;;;;;;;;5111277;28;20063;-88
2022/05/01 02:12:10;;;;;;;14.05;7.15;;;;;;;;;;5098236;28;20035;-88
2022/05/01 02:14:36;;;;;;;7.75;6.40;;;;;;;;;;5098334;28;20023;-88
2022/05/01 02:17:05;;;;;;;7.95;6.72;;;;;;;;;;5097125;28;20146;-88
2022/05/01 02:19:31;;;;;;;7.35;6.15;;;;;;;;;;5097015;28;20066;-88
2022/05/01 02:25:01;;;;;;;8.43;5.88;;;;;;;;;;5097965;28;20049;-88
2022/05/01 02:27:27;;;;;;;6.70;6.00;;;;;;;;;;5097901;28;20081;-88
2022/05/01 02:29:53;;;;;;;10.10;6.55;;;;;;;;;;5103711;28;20053;-89
2022/05/01 02:32:19;;;;;;;8.25;6.50;;;;;;;;;;5117490;28;20027;-89
2022/05/01 02:34:45;;;;;;;8.35;6.32;;;;;;;;;;5116761;28;20036;-88
2022/05/01 02:40:15;;;;;;;7.78;6.63;;;;;;;;;;5116377;28;20039;-88
2022/05/01 02:42:42;;;;;;;7.40;6.70;;;;;;;;;;5118172;28;20027;-89
2022/05/01 02:45:09;;;;;;;9.77;6.45;;;;;;;;;;5117632;28;20051;-89
2022/05/01 02:47:35;;;;;;;9.20;6.75;;;;;;;;;;5118779;28;20016;-89
2022/05/01 02:50:01;;;;;;;7.97;6.25;;;;;;;;;;5116899;28;20058;-88
2022/05/01 02:52:27;;;;;;;6.63;5.93;;;;;;;;;;5118246;28;20027;-89
2022/05/01 02:54:53;;;;;;;8.45;6.43;;;;;;;;;;5118261;28;20028;-89
2022/05/01 02:57:19;;;;;;;8.65;6.70;;;;;;;;;;5118301;28;20035;-89
2022/05/01 02:59:45;;;;;;;8.38;5.68;;;;;;;;;;5117320;28;20063;-89
2022/05/01 03:02:11;;;;;;;7.78;6.53;;;;;;;;;;5122503;28;20020;-88
2022/05/01 03:04:38;;;;;;;9.23;6.35;;;;;;;;;;5121996;28;20016;-89
2022/05/01 03:07:23;;;;;;;9.90;6.70;;;;;;;;;;5122246;28;20047;-89
2022/05/01 03:09:49;;;;;;;7.72;6.60;;;;;;;;;;5121434;28;20027;-89
2022/05/01 03:12:18;;;;;;;8.15;6.68;;;;;;;;;;5122138;28;20399;-89
2022/05/01 03:14:49;;;;;;;7.05;6.35;;;;;;;;;;5121911;28;20030;-88
2022/05/01 03:17:15;;;;;;;9.00;6.65;;;;;;;;;;5121108;28;20039;-90
2022/05/01 03:22:26;;;;;;;11.90;7.05;;;;;;;;;;5122066;28;20046;-89
2022/05/01 03:24:52;;;;;;;8.30;6.50;;;;;;;;;;5120177;28;20024;-89
2022/05/01 03:27:18;;;;;;;7.55;6.60;;;;;;;;;;5121629;28;20129;-89
2022/05/01 03:30:15;;;;;;;7.43;6.60;;;;;;;;;;5121577;28;20409;-89
2022/05/01 03:32:31;;;;;;;8.27;6.47;;;;;;;;;;5121527;28;20107;-88
2022/05/01 03:34:57;;;;;;;7.95;7.15;;;;;;;;;;5120731;28;20384;-88
2022/05/01 03:37:24;;;;;;;9.10;7.38;;;;;;;;;;5121577;28;20031;-88
2022/05/01 03:39:50;;;;;;;9.13;6.68;;;;;;;;;;5121569;28;20027;-89
2022/05/01 03:42:16;;;;;;;7.95;7.05;;;;;;;;;;5121687;28;20098;-90
2022/05/01 03:44:42;;;;;;;9.50;8.23;;;;;;;;;;5104633;28;20024;-89
2022/05/01 03:47:08;;;;;;;10.55;7.05;;;;;;;;;;5101089;28;20020;-88
2022/05/01 03:49:34;;;;;;;9.10;7.07;;;;;;;;;;5099582;28;20044;-88
2022/05/01 03:52:37;;;;;;;11.57;6.63;;;;;;;;;;5099986;28;20056;-89
2022/05/01 03:55:03;;;;;;;8.93;7.32;;;;;;;;;;5100710;28;20028;-89
2022/05/01 03:57:29;;;;;;;9.48;7.32;;;;;;;;;;5100872;28;20028;-89
2022/05/01 03:59:55;;;;;;;9.73;7.05;;;;;;;;;;5099614;28;20074;-88
2022/05/01 04:02:21;;;;;;;11.13;6.90;;;;;;;;;;5099667;28;20052;-89
2022/05/01 04:04:48;;;;;;;9.27;7.00;;;;;;;;;;5118723;28;20047;-89
2022/05/01 04:07:14;;;;;;;7.95;6.97;;;;;;;;;;5120980;28;20016;-89
2022/05/01 04:09:40;;;;;;;7.40;6.60;;;;;;;;;;5119896;28;20028;-89
2022/05/01 04:12:06;;;;;;;7.90;6.00;;;;;;;;;;5120728;28;20103;-89
2022/05/01 04:14:34;;;;;;;8.85;6.90;;;;;;;;;;5121021;28;20020;-88
2022/05/01 04:17:00;;;;;;;8.82;6.80;;;;;;;;;;5121000;28;20019;-88
2022/05/01 04:19:29;;;;;;;8.68;7.18;;;;;;;;;;5102987;28;20028;-88
2022/05/01 04:21:55;;;;;;;9.07;7.22;;;;;;;;;;5100236;28;20020;-89
2022/05/01 04:24:22;;;;;;;7.10;6.40;;;;;;;;;;5115979;28;20030;-89
2022/05/01 04:26:48;;;;;;;8.55;7.60;;;;;;;;;;5120537;28;20032;-89
2022/05/01 04:31:58;;;;;;;9.15;7.30;;;;;;;;;;5120652;28;20042;-88
2022/05/01 04:34:25;;;;;;;8.68;6.78;;;;;;;;;;5119499;28;20070;-89
2022/05/01 04:43:02;;;;;;;7.75;7.05;;;;;;;;;;5104570;28;20132;-88
2022/05/01 04:45:29;;;;;;;9.13;7.82;;;;;;;;;;5120479;28;20043;-88
2022/05/01 04:47:55;;;;;;;10.45;7.53;;;;;;;;;;5120452;28;20103;-87
2022/05/01 04:50:21;;;;;;;7.97;7.18;;;;;;;;;;5118714;28;20380;-88
2022/05/01 04:55:54;;;;;;;8.20;7.40;;;;;;;;;;5120314;28;20030;-88
2022/05/01 04:58:23;;;;;;;9.65;7.15;;;;;;;;;;5111308;28;20020;-87
2022/05/01 05:00:50;;;;;;;7.90;6.75;;;;;;;;;;5098494;28;20032;-87
2022/05/01 05:03:16;;;;;;;7.97;6.97;;;;;;;;;;5099510;28;20024;-87
2022/05/01 05:05:42;;;;;;;10.05;6.75;;;;;;;;;;5099804;28;20051;-88
2022/05/01 05:10:53;;;;;;;9.02;6.78;;;;;;;;;;5119880;28;20116;-88
2022/05/01 05:13:24;;;;;;;7.60;6.70;;;;;;;;;;5119827;27;20020;-88
2022/05/01 05:15:50;;;;;;;7.68;6.50;;;;;;;;;;5118646;28;20024;-88
2022/05/01 05:18:16;;;;;;;9.90;7.25;;;;;;;;;;5119227;28;20053;-91
2022/05/01 05:20:42;;;;;;;12.20;6.50;;;;;;;;;;5118439;28;20016;-90
2022/05/01 05:23:09;;;;;;;8.00;6.25;;;;;;;;;;5105569;28;20028;-90
2022/05/01 05:25:35;;;;;;;8.13;6.95;;;;;;;;;;5099304;28;20024;-88
2022/05/01 05:28:01;;;;;;;9.25;6.85;;;;;;;;;;5099086;28;20099;-89
2022/05/01 05:30:27;;;;;;;8.68;6.90;;;;;;;;;;5098078;28;20047;-89
2022/05/01 05:32:53;;;;;;;8.07;5.88;;;;;;;;;;5098827;28;20352;-88
2022/05/01 05:35:20;;;;;;;8.40;6.30;;;;;;;;;;5099010;28;20038;-89
2022/05/01 05:37:46;;;;;;;7.90;6.18;;;;;;;;;;5098050;28;20028;-89
2022/05/01 05:40:12;;;;;;;6.68;5.82;;;;;;;;;;5098964;28;20031;-89
2022/05/01 05:42:38;;;;;;;9.25;5.70;;;;;;;;;;5107679;28;20020;-89
2022/05/01 05:45:04;;;;;;;8.45;6.05;;;;;;;;;;5119243;28;20084;-89
2022/05/01 05:47:30;;;;;;;6.93;5.70;;;;;;;;;;5118069;28;20020;-89
2022/05/01 05:49:57;;;;;;;6.40;5.78;;;;;;;;;;5118597;28;20051;-89
2022/05/01 05:52:23;;;;;;;7.47;5.60;;;;;;;;;;5117918;28;20106;-89
2022/05/01 05:54:49;;;;;;;9.57;6.40;;;;;;;;;;5119066;28;20039;-90
2022/05/01 05:57:15;;;;;;;8.15;6.05;;;;;;;;;;5117084;28;20112;-89
2022/05/01 05:59:41;;;;;;;10.77;7.07;;;;;;;;;;5118453;28;20038;-88
2022/05/01 06:02:08;;;;;;;9.05;5.95;;;;;;;;;;5113392;28;20038;-88
2022/05/01 06:04:34;;;;;;;11.13;6.35;;;;;;;;;;5098430;28;20020;-87
2022/05/01 06:07:00;;;;;;;15.63;11.60;;;;;;;;;;5098337;28;20047;-89
2022/05/01 06:09:26;;;;;;;17.42;11.23;;;;;;;;;;5098329;28;20020;-88
2022/05/01 06:11:52;;;;;;;7.93;6.40;;;;;;;;;;5098369;28;20047;-88
2022/05/01 06:14:18;;;;;;;7.90;6.22;;;;;;;;;;5097466;28;20036;-91
2022/05/01 06:16:44;;;;;;;7.22;5.70;;;;;;;;;;5098661;28;20073;-90
2022/05/01 06:19:10;;;;;;;7.70;5.88;;;;;;;;;;5097993;28;20028;-90
2022/05/01 06:21:36;;;;;;;7.60;5.43;;;;;;;;;;5098917;28;20048;-88
2022/05/01 06:24:03;;;;;;;9.60;6.03;;;;;;;;;;5101039;28;20405;-89
2022/05/01 06:26:29;;;;;;;10.35;6.18;;;;;;;;;;5114916;28;20429;-89
2022/05/01 06:28:55;;;;;;;6.45;4.72;;;;;;;;;;5115264;28;20419;-89
2022/05/01 06:31:21;;;;;;;6.45;4.70;;;;;;;;;;5118189;28;20340;-88
2022/05/01 06:33:47;;;;;;;5.97;5.15;;;;;;;;;;5118358;28;20024;-89
2022/05/01 06:36:15;;;;;;;11.40;5.97;;;;;;;;;;5117911;28;20103;-88
2022/05/01 06:38:42;;;;;;;5.95;4.80;;;;;;;;;;5118290;28;20117;-88
2022/05/01 06:41:08;;;;;;;9.95;5.00;;;;;;;;;;5117207;28;20027;-87
2022/05/01 06:43:35;;;;;;;8.35;5.50;;;;;;;;;;5117356;28;20110;-89
2022/05/01 06:46:01;;;;;;;6.78;4.65;;;;;;;;;;5118041;28;20051;-88
2022/05/01 06:48:27;;;;;;;8.48;4.90;;;;;;;;;;5107407;28;20035;-87
2022/05/01 06:50:53;;;;;;;7.53;4.97;;;;;;;;;;5115017;28;20024;-87
2022/05/01 06:56:22;;;;;;;7.45;4.72;;;;;;;;;;5097888;28;20077;-87
2022/05/01 06:58:48;;;;;;;8.25;4.45;;;;;;;;;;5097744;28;20133;-86
2022/05/01 07:01:15;;;;;;;6.93;4.70;;;;;;;;;;5096840;28;20024;-87
2022/05/01 07:03:42;;;;;;;5.22;4.43;;;;;;;;;;5098299;28;20056;-87
2022/05/01 07:06:08;;;;;;;7.32;4.65;;;;;;;;;;5101370;28;20023;-89
2022/05/01 07:08:34;;;;;;;8.90;5.32;;;;;;;;;;5117484;28;20329;-89
2022/05/01 07:11:00;;;;;;;16.75;11.38;;;;;;;;;;5116023;28;20020;-87
2022/05/01 07:13:26;;;;;;;33.28;25.10;;;;;;;;;;5108956;28;20028;-88
2022/05/01 07:15:52;;;;;;;50.90;36.10;;;;;;;;;;5116031;28;20116;-88
2022/05/01 07:18:18;;;;;;;70.10;45.83;;;;;;;;;;5101400;28;20036;-86
2022/05/01 07:20:46;;;;;;;6.22;5.18;;;;;;;;;;5097427;28;20036;-86
2022/05/01 07:23:12;;;;;;;8.50;4.57;;;;;;;;;;5117044;28;20034;-89
2022/05/01 07:25:38;;;;;;;7.75;4.63;;;;;;;;;;5117965;28;20016;-88
2022/05/01 07:28:04;;;;;;;8.73;4.32;;;;;;;;;;5117764;28;20102;-89
2022/05/01 07:30:30;;;;;;;4.53;3.55;;;;;;;;;;5116643;28;20031;-90
2022/05/01 07:32:58;;;;;;;6.43;4.55;;;;;;;;;;5116747;28;20024;-88
2022/05/01 07:35:24;;;;;;;4.70;4.15;;;;;;;;;;5116385;28;20055;-89
2022/05/01 07:37:50;;;;;;;8.35;4.20;;;;;;;;;;5117879;28;20420;-89
2022/05/01 07:40:16;;;;;;;7.20;4.32;;;;;;;;;;5117505;28;20366;-89
2022/05/01 07:42:42;;;;;;;6.32;4.60;;;;;;;;;;5117489;28;20047;-90
2022/05/01 07:45:09;;;;;;;8.02;4.60;;;;;;;;;;5116396;28;20110;-89
2022/05/01 07:47:35;;;;;;;10.73;7.47;;;;;;;;;;5105578;28;20043;-89
2022/05/01 07:50:01;;;;;;;8.25;4.78;;;;;;;;;;5099899;28;20052;-88
2022/05/01 07:52:27;;;;;;;8.27;6.20;;;;;;;;;;5120224;28;20337;-90
2022/05/01 07:54:53;;;;;;;8.55;5.30;;;;;;;;;;5120896;28;20044;-89
2022/05/01 07:57:20;;;;;;;8.73;5.80;;;;;;;;;;5120451;28;20020;-89
2022/05/01 07:59:47;;;;;;;8.38;5.93;;;;;;;;;;5120098;28;20037;-90
2022/05/01 08:02:13;;;;;;;11.82;7.40;;;;;;;;;;5120702;28;20045;-89
2022/05/01 08:04:39;;;;;;;15.13;9.35;;;;;;;;;;5120535;28;20141;-90
2022/05/01 08:07:05;;;;;;;14.90;9.00;;;;;;;;;;5120877;28;20048;-89
2022/05/01 08:09:32;;;;;;;5.18;4.32;;;;;;;;;;5120559;28;20420;-89
2022/05/01 08:11:58;;;;;;;6.53;5.13;;;;;;;;;;5121149;28;20067;-89
2022/05/01 08:14:24;;;;;;;6.70;4.80;;;;;;;;;;5120680;28;20360;-89
2022/05/01 08:16:51;;;;;;;7.28;5.55;;;;;;;;;;5120852;28;20027;-89
2022/05/01 08:22:03;;;;;;;8.98;4.82;;;;;;;;;;5120864;28;20391;-90
2022/05/01 08:24:29;;;;;;;8.52;4.63;;;;;;;;;;5120741;28;20068;-89
2022/05/01 08:26:56;;;;;;;6.88;3.95;;;;;;;;;;5120483;28;20020;-90
2022/05/01 08:29:22;;;;;;;4.55;3.47;;;;;;;;;;5120317;28;20024;-90
2022/05/01 08:31:48;;;;;;;12.05;4.22;;;;;;;;;;5120071;28;20019;-89
2022/05/01 08:34:16;;;;;;;9.88;3.33;;;;;;;;;;5120562;28;20023;-90
2022/05/01 08:36:42;;;;;;;5.57;3.42;;;;;;;;;;5119720;28;20122;-89
2022/05/01 08:39:09;;;;;;;6.47;3.92;;;;;;;;;;5119267;28;20035;-89
2022/05/01 08:41:35;;;;;;;8.85;4.57;;;;;;;;;;5120389;28;20019;-90
2022/05/01 08:44:02;;;;;;;8.27;4.90;;;;;;;;;;5120043;28;20020;-89
2022/05/01 08:46:37;;;;;;;7.60;4.05;;;;;;;;;;5120371;28;20039;-89
2022/05/01 08:49:06;;;;;;;12.85;7.75;;;;;;;;;;5118930;28;20040;-89
2022/05/01 08:51:41;;;;;;;7.88;4.78;;;;;;;;;;5120338;28;20032;-89
2022/05/01 08:54:12;;;;;;;6.18;3.38;;;;;;;;;;5119061;28;20054;-90
2022/05/01 08:56:41;;;;;;;10.85;7.90;;;;;;;;;;5119846;28;20031;-89
2022/05/01 08:59:09;;;;;;;5.32;3.50;;;;;;;;;;5119804;28;20032;-89
2022/05/01 09:01:36;;;;;;;10.65;3.25;;;;;;;;;;5118957;28;20030;-89
2022/05/01 09:04:04;;;;;;;8.40;4.45;;;;;;;;;;5118725;28;20119;-90
2022/05/01 09:07:04;;;;;;;9.70;7.07;;;;;;;;;;5119560;28;20042;-90
2022/05/01 09:09:31;;;;;;;6.03;3.40;;;;;;;;;;5119525;28;20061;-89
2022/05/01 09:14:42;;;;;;;6.43;3.42;;;;;;;;;;5119999;28;20057;-89
2022/05/01 09:17:19;;;;;;;6.85;4.40;;;;;;;;;;5118566;28;20028;-89
2022/05/01 09:19:49;;;;;;;5.70;3.22;;;;;;;;;;5118600;28;20032;-87
2022/05/01 09:22:16;;;;;;;9.23;7.53;;;;;;;;;;5119306;28;20024;-88
2022/05/01 09:24:42;;;;;;;8.10;4.93;;;;;;;;;;5119528;28;20413;-87
2022/05/01 09:27:28;;;;;;;6.57;3.55;;;;;;;;;;5119506;28;20024;-87
2022/05/01 09:30:07;;;;;;;9.55;5.78;;;;;;;;;;5119426;28;20039;-89
2022/05/01 09:32:37;;;;;;;6.25;4.00;;;;;;;;;;5119059;28;20149;-89
2022/05/01 09:35:03;;;;;;;15.70;7.97;;;;;;;;;;5119452;28;20054;-88
2022/05/01 09:37:29;;;;;;;8.27;4.72;;;;;;;;;;5118145;28;20036;-89
2022/05/01 09:39:55;;;;;;;7.88;4.90;;;;;;;;;;5119053;28;20027;-92
2022/05/01 09:42:25;;;;;;;7.00;4.40;;;;;;;;;;5119195;27;20020;-89
2022/05/01 09:45:06;;;;;;;7.60;2.70;;;;;;;;;;5118894;28;20047;-89
2022/05/01 09:47:42;;;;;;;8.48;2.80;;;;;;;;;;5118069;28;20422;-89
2022/05/01 09:50:09;;;;;;;13.10;3.47;;;;;;;;;;5118487;28;20044;-89
2022/05/01 09:53:11;;;;;;;8.25;3.08;;;;;;;;;;5118678;28;20024;-89
2022/05/01 09:55:37;;;;;;;;;;;;;;;;;;5080333;28;20422;-89
2022/05/01 09:58:11;;;;;;;10.23;4.78;;;;;;;;;;5096868;28;19904;-85
2022/05/01 10:00:37;;;;;;;14.73;4.00;;;;;;;;;;5096082;28;20119;-85
2022/05/01 10:03:22;;;;;;;13.52;4.25;;;;;;;;;;5090945;28;20033;-85
2022/05/01 10:05:49;;;;;;;8.55;3.75;;;;;;;;;;5075784;28;20100;-83
2022/05/01 10:08:16;;;;;;;7.45;2.67;;;;;;;;;;5075857;28;20043;-84
2022/05/01 10:10:44;;;;;;;11.13;3.20;;;;;;;;;;5058577;28;20071;-84
2022/05/01 10:13:11;;;;;;;7.55;2.97;;;;;;;;;;5075598;28;20039;-84
2022/05/01 10:15:37;;;;;;;5.90;3.03;;;;;;;;;;5075825;28;20434;-84
2022/05/01 10:18:04;;;;;;;10.35;4.10;;;;;;;;;;5058793;28;20078;-84
2022/05/01 10:20:30;;;;;;;5.88;3.95;;;;;;;;;;5075491;28;20055;-84
2022/05/01 10:22:56;;;;;;;15.18;5.50;;;;;;;;;;5058653;28;20033;-83
2022/05/01 10:25:22;;;;;;;6.20;4.45;;;;;;;;;;5075589;28;20028;-84
2022/05/01 10:28:04;;;;;;;15.45;7.70;;;;;;;;;;5075500;28;20027;-84
2022/05/01 10:33:30;;;;;;;14.18;7.90;;;;;;;;;;5097904;28;20034;-84
2022/05/01 10:36:22;;;;;;;22.85;10.88;;;;;;;;;;5097603;28;20028;-84
2022/05/01 10:38:57;;;;;;;31.25;15.43;;;;;;;;;;5097339;28;20073;-84
2022/05/01 10:41:24;;;;;;;41.72;18.83;;;;;;;;;;5097335;28;20031;-84
2022/05/01 10:43:57;;;;;;;39.42;22.40;;;;;;;;;;5097307;28;20410;-84
2022/05/01 10:46:23;;;;;;;25.40;13.27;;;;;;;;;;5097254;28;20051;-84
2022/05/01 10:48:49;;;;;;;42.72;20.35;;;;;;;;;;5097082;28;20464;-84
2022/05/01 10:51:30;;;;;;;33.03;17.50;;;;;;;;;;5097012;28;20032;-85
2022/05/01 10:54:15;;;;;;;17.83;10.13;;;;;;;;;;5097144;28;20020;-84
2022/05/01 10:56:41;;;;;;;14.75;7.60;;;;;;;;;;5097187;28;20028;-84
2022/05/01 10:59:26;;;;;;;10.32;6.00;;;;;;;;;;5097407;28;20040;-84
2022/05/01 11:01:53;;;;;;;11.88;6.40;;;;;;;;;;5097328;28;20318;-84
2022/05/01 11:04:22;;;;;;;10.13;5.13;;;;;;;;;;5097254;28;20100;-84
2022/05/01 11:06:51;;;;;;;13.55;5.63;;;;;;;;;;5097275;28;20043;-84
2022/05/01 11:09:22;;;;;;;13.25;5.95;;;;;;;;;;5096137;28;20020;-84
2022/05/01 11:11:56;;;;;;;12.93;6.45;;;;;;;;;;5097199;28;20402;-84
2022/05/01 11:14:35;;;;;;;12.55;7.70;;;;;;;;;;5097218;28;20115;-84
2022/05/01 11:17:04;;;;;;;16.83;7.88;;;;;;;;;;5097099;28;20037;-84
2022/05/01 11:19:31;;;;;;;17.98;7.93;;;;;;;;;;5096946;28;20028;-84
2022/05/01 11:21:58;;;;;;;15.77;7.82;;;;;;;;;;5099093;28;20107;-84
2022/05/01 11:24:42;;;;;;;16.90;7.88;;;;;;;;;;5101215;28;20048;-84
2022/05/01 11:27:11;;;;;;;16.45;8.23;;;;;;;;;;5100979;28;20020;-84
2022/05/01 11:29:38;;;;;;;16.73;7.40;;;;;;;;;;5099842;28;20583;-84
2022/05/01 11:32:17;;;;;;;17.73;8.50;;;;;;;;;;5100713;28;20042;-84
2022/05/01 11:34:51;;;;;;;21.42;9.88;;;;;;;;;;5100925;28;20080;-84
2022/05/01 11:37:17;;;;;;;19.90;10.43;;;;;;;;;;5100595;28;20028;-84
2022/05/01 11:39:46;;;;;;;20.60;9.07;;;;;;;;;;5100855;28;20085;-84
2022/05/01 11:42:22;;;;;;;14.80;7.68;;;;;;;;;;5099607;28;20122;-84
2022/05/01 11:44:49;;;;;;;10.10;5.57;;;;;;;;;;5099585;28;20198;-84
2022/05/01 11:47:15;;;;;;;9.80;5.10;;;;;;;;;;5100301;28;20020;-84
2022/05/01 11:49:41;;;;;;;9.38;4.55;;;;;;;;;;5098971;28;20048;-84
2022/05/01 11:52:07;;;;;;;6.68;4.00;;;;;;;;;;5100536;28;20028;-84
2022/05/01 11:54:35;;;;;;;10.45;3.67;;;;;;;;;;5100049;28;20413;-84
2022/05/01 12:02:32;;;;;;;5.72;3.22;;;;;;;;;;5100578;28;20051;-84
2022/05/01 12:04:58;;;;;;;5.95;2.72;;;;;;;;;;5100214;28;20024;-84
2022/05/01 12:07:25;;;;;;;7.20;3.03;;;;;;;;;;5100078;28;20020;-84
2022/05/01 12:09:55;;;;;;;5.10;2.40;;;;;;;;;;5100061;28;20028;-85
2022/05/01 12:12:21;;;;;;;6.68;2.85;;;;;;;;;;5099983;28;20024;-84
2022/05/01 12:14:48;;;;;;;10.27;4.57;;;;;;;;;;5099968;28;20036;-84
2022/05/01 12:17:15;;;;;;;11.55;4.72;;;;;;;;;;5100026;28;20069;-85
2022/05/01 12:19:46;;;;;;;8.30;3.42;;;;;;;;;;5099711;28;20052;-81
2022/05/01 12:22:13;;;;;;;7.65;3.50;;;;;;;;;;5099832;28;20028;-82
2022/05/01 12:24:40;;;;;;;6.43;3.47;;;;;;;;;;5100013;28;20032;-83
2022/05/01 12:27:07;;;;;;;5.80;2.78;;;;;;;;;;5099937;28;20017;-82
2022/05/01 12:29:33;;;;;;;6.65;2.97;;;;;;;;;;5099831;28;20333;-82
2022/05/01 12:32:08;;;;;;;5.68;2.38;;;;;;;;;;5099520;28;20043;-82
2022/05/01 12:34:36;;;;;;;9.07;3.63;;;;;;;;;;5099735;28;20020;-83
2022/05/01 12:37:04;;;;;;;4.80;2.92;;;;;;;;;;5099423;28;20425;-82
2022/05/01 12:39:31;;;;;;;5.13;2.97;;;;;;;;;;5099643;28;20039;-83
2022/05/01 12:45:20;;;;;;;8.43;4.40;;;;;;;;;;5099616;28;20168;-83
2022/05/01 12:47:49;;;;;;;4.05;2.90;;;;;;;;;;5099550;28;20028;-82
2022/05/01 12:50:18;;;;;;;5.45;3.72;;;;;;;;;;5099131;28;20135;-82
2022/05/01 12:52:45;;;;;;;5.25;2.83;;;;;;;;;;5099248;28;20020;-82
2022/05/01 12:55:21;;;;;;;3.33;2.60;;;;;;;;;;5099020;28;20032;-82
2022/05/01 12:57:51;;;;;;;5.75;3.85;;;;;;;;;;5099047;28;20032;-82
2022/05/01 13:00:29;;;;;;;8.02;2.90;;;;;;;;;;5099179;28;20036;-83
2022/05/01 13:03:14;;;;;;;5.05;2.40;;;;;;;;;;5099063;28;20023;-82
2022/05/01 13:05:41;;;;;;;5.65;3.17;;;;;;;;;;5099001;28;20024;-82
2022/05/01 13:08:17;;;;;;;4.38;2.60;;;;;;;;;;5098815;28;20449;-83
2022/05/01 13:10:43;;;;;;;3.75;2.65;;;;;;;;;;5098617;28;20408;-82
2022/05/01 13:13:09;;;;;;;6.85;2.88;;;;;;;;;;5097559;28;20028;-82
2022/05/01 13:15:39;;;;;;;4.53;2.35;;;;;;;;;;5099005;28;20028;-82
2022/05/01 13:18:05;;;;;;;8.57;2.83;;;;;;;;;;5098460;28;20032;-82
2022/05/01 13:20:31;;;;;;;5.07;2.90;;;;;;;;;;5098490;28;20031;-82
2022/05/01 13:22:57;;;;;;;3.92;2.95;;;;;;;;;;5097382;28;20027;-82
2022/05/01 13:25:23;;;;;;;4.68;2.50;;;;;;;;;;5097349;28;20323;-82
2022/05/01 13:27:49;;;;;;;7.32;2.17;;;;;;;;;;5098314;28;20024;-82
2022/05/01 13:30:15;;;;;;;8.30;2.53;;;;;;;;;;5098628;28;20031;-82
2022/05/01 13:32:41;;;;;;;3.35;2.20;;;;;;;;;;5098619;28;20020;-82
2022/05/01 13:35:08;;;;;;;5.80;3.08;;;;;;;;;;5097363;28;20115;-82
2022/05/01 13:37:34;;;;;;;3.22;2.30;;;;;;;;;;5098608;28;20028;-82
2022/05/01 13:45:30;;;;;;;4.15;1.90;;;;;;;;;;5097959;28;20082;-82
2022/05/01 13:47:56;;;;;;;6.35;2.60;;;;;;;;;;5098292;28;20099;-82
2022/05/01 13:50:24;;;;;;;3.60;1.80;;;;;;;;;;5097882;28;20055;-82
2022/05/01 13:52:50;;;;;;;2.13;1.90;;;;;;;;;;5098022;28;20024;-82
2022/05/01 13:55:16;;;;;;;2.92;1.92;;;;;;;;;;5098044;28;20031;-82
2022/05/01 13:57:43;;;;;;;4.57;1.80;;;;;;;;;;5097992;28;20059;-82
2022/05/01 14:00:11;;;;;;;3.10;2.08;;;;;;;;;;5096837;28;20333;-82
2022/05/01 14:02:37;;;;;;;3.72;2.00;;;;;;;;;;5097917;28;20030;-82
2022/05/01 14:05:03;;;;;;;6.93;2.40;;;;;;;;;;5098144;28;20020;-82
2022/05/01 14:07:29;;;;;;;3.28;1.80;;;;;;;;;;5097461;28;20493;-82
2022/05/01 14:09:55;;;;;;;3.35;2.00;;;;;;;;;;5097832;28;20050;-82
2022/05/01 14:12:21;;;;;;;6.15;2.03;;;;;;;;;;5096718;28;20334;-82
2022/05/01 14:14:48;;;;;;;2.63;1.63;;;;;;;;;;5097813;28;20066;-82
2022/05/01 14:17:14;;;;;;;7.45;2.78;;;;;;;;;;5097869;28;20027;-82
2022/05/01 14:19:41;;;;;;;3.78;2.50;;;;;;;;;;5096630;28;20077;-82
2022/05/01 14:22:08;;;;;;;7.75;4.05;;;;;;;;;;5096466;28;20410;-82
2022/05/01 14:24:35;;;;;;;2.92;2.03;;;;;;;;;;5096634;28;20107;-82
2022/05/01 14:27:02;;;;;;;3.25;2.28;;;;;;;;;;5096439;28;20032;-82
2022/05/01 14:29:28;;;;;;;3.25;1.80;;;;;;;;;;5097659;28;20028;-82
2022/05/01 14:32:00;;;;;;;3.60;2.03;;;;;;;;;;5097372;28;20032;-82
2022/05/01 14:34:32;;;;;;;3.78;1.92;;;;;;;;;;5097518;28;20024;-83
2022/05/01 14:36:58;;;;;;;4.22;2.88;;;;;;;;;;5097315;28;20111;-82
2022/05/01 14:39:25;;;;;;;5.72;2.80;;;;;;;;;;5097064;28;20421;-82
2022/05/01 14:41:55;;;;;;;4.75;2.60;;;;;;;;;;5097449;28;20024;-82
2022/05/01 14:44:28;;;;;;;4.25;2.05;;;;;;;;;;5096440;28;20028;-82
2022/05/01 14:46:56;;;;;;;5.25;2.35;;;;;;;;;;5097269;28;20012;-82
2022/05/01 14:49:35;;;;;;;6.30;2.60;;;;;;;;;;5097164;28;20102;-82
2022/05/01 14:52:02;;;;;;;1.63;1.35;;;;;;;;;;5097510;28;20473;-82
2022/05/01 14:54:29;;;;;;;4.88;2.13;;;;;;;;;;5097298;28;20050;-82
2022/05/01 14:57:00;;;;;;;3.72;2.22;;;;;;;;;;5100191;28;20024;-82
2022/05/01 15:07:55;;;;;;;3.80;2.00;;;;;;;;;;5101483;28;20027;-82
2022/05/01 15:10:21;;;;;;;2.97;2.38;;;;;;;;;;5101251;28;20103;-84
2022/05/01 15:12:48;;;;;;;3.33;1.65;;;;;;;;;;5101525;28;20024;-82
2022/05/01 15:15:14;;;;;;;5.63;1.98;;;;;;;;;;5101260;28;20111;-82
2022/05/01 15:17:42;;;;;;;2.90;2.03;;;;;;;;;;5100986;28;20295;-82
2022/05/01 15:20:20;;;;;;;3.08;2.17;;;;;;;;;;5100961;28;20028;-82
2022/05/01 15:22:58;;;;;;;4.15;2.60;;;;;;;;;;5100776;28;20020;-82
2022/05/01 15:25:29;;;;;;;4.85;2.70;;;;;;;;;;5099724;28;20060;-82
2022/05/01 15:28:04;;;;;;;4.35;3.25;;;;;;;;;;5101098;28;20020;-82
2022/05/01 15:30:32;;;;;;;3.33;2.10;;;;;;;;;;5100453;28;20127;-82
2022/05/01 15:33:42;;;;;;;6.47;2.40;;;;;;;;;;5100780;28;20067;-82
2022/05/01 15:36:08;;;;;;;4.28;2.20;;;;;;;;;;5100508;28;20031;-82
2022/05/01 15:38:39;;;;;;;3.75;2.10;;;;;;;;;;5100717;28;20032;-82
2022/05/01 15:41:12;;;;;;;3.22;2.20;;;;;;;;;;5100619;28;20024;-82
2022/05/01 15:43:39;;;;;;;4.18;2.60;;;;;;;;;;5100636;28;20073;-82
2022/05/01 15:46:21;;;;;;;3.55;2.90;;;;;;;;;;5099709;28;20028;-82
2022/05/01 15:54:23;;;;;;;4.60;3.72;;;;;;;;;;5100619;28;20031;-82
2022/05/01 15:56:50;;;;;;;5.30;3.58;;;;;;;;;;5100178;28;20026;-82
2022/05/01 15:59:18;;;;;;;4.07;3.00;;;;;;;;;;5100275;28;20040;-82
2022/05/01 16:01:46;;;;;;;6.85;3.55;;;;;;;;;;5099053;28;20030;-82
2022/05/01 16:04:12;;;;;;;8.55;4.35;;;;;;;;;;5100108;28;20017;-82
2022/05/01 16:06:39;;;;;;;7.10;3.60;;;;;;;;;;5099152;28;20108;-82
2022/05/01 16:09:08;;;;;;;5.00;2.75;;;;;;;;;;5099808;28;20036;-82
2022/05/01 16:12:06;;;;;;;6.93;3.55;;;;;;;;;;5099897;28;20422;-82
2022/05/01 16:14:37;;;;;;;4.82;3.00;;;;;;;;;;5077882;28;20139;-82